createdAt,value
2018-07-14T00:00:15.342Z,1021
2018-07-14T00:01:15.206Z,1020.99
2018-07-14T00:02:15.346Z,1020.97
2018-07-14T00:03:15.154Z,1020.99
2018-07-14T00:04:15.273Z,1020.98
2018-07-14T00:05:15.538Z,1021
2018-07-14T00:06:15.276Z,1020.97
2018-07-14T00:07:15.385Z,1020.94
2018-07-14T00:08:15.411Z,1020.99
2018-07-14T00:09:15.514Z,1020.95
2018-07-14T00:10:15.377Z,1020.94
2018-07-14T00:11:15.140Z,1020.98
2018-07-14T00:12:15.193Z,1020.95
2018-07-14T00:13:15.267Z,1020.95
2018-07-14T00:14:15.431Z,1020.99
2018-07-14T00:15:15.357Z,1020.94
2018-07-14T00:16:15.236Z,1020.93
2018-07-14T00:17:15.524Z,1020.98
2018-07-14T00:18:15.379Z,1020.94
2018-07-14T00:19:15.371Z,1020.95
2018-07-14T00:20:15.278Z,1020.94
2018-07-14T00:21:15.182Z,1020.98
2018-07-14T00:22:15.290Z,1020.92
2018-07-14T00:23:15.205Z,1020.95
2018-07-14T00:24:15.352Z,1020.97
2018-07-14T00:25:15.369Z,1020.95
2018-07-14T00:26:15.244Z,1020.96
2018-07-14T00:27:15.268Z,1020.96
2018-07-14T00:28:15.268Z,1020.96
2018-07-14T00:29:15.282Z,1020.94
2018-07-14T00:30:15.119Z,1020.94
2018-07-14T00:31:15.240Z,1020.96
2018-07-14T00:32:15.497Z,1020.95
2018-07-14T00:33:15.289Z,1020.95
2018-07-14T00:34:15.271Z,1020.95
2018-07-14T00:35:15.154Z,1020.94
2018-07-14T00:36:15.299Z,1020.92
2018-07-14T00:37:15.419Z,1020.95
2018-07-14T00:38:15.352Z,1020.94
2018-07-14T00:39:15.151Z,1020.95
2018-07-14T00:40:15.412Z,1020.99
2018-07-14T00:41:15.315Z,1020.98
2018-07-14T00:42:15.140Z,1020.99
2018-07-14T00:43:15.302Z,1020.93
2018-07-14T00:44:15.168Z,1020.93
2018-07-14T00:45:15.191Z,1020.87
2018-07-14T00:46:15.503Z,1020.87
2018-07-14T00:47:15.189Z,1020.85
2018-07-14T00:48:15.134Z,1020.84
2018-07-14T00:49:15.297Z,1020.84
2018-07-14T00:50:15.210Z,1020.79
2018-07-14T00:51:15.185Z,1020.83
2018-07-14T00:52:15.337Z,1020.81
2018-07-14T00:53:15.192Z,1020.82
2018-07-14T00:54:15.271Z,1020.84
2018-07-14T00:55:15.139Z,1020.82
2018-07-14T00:56:15.274Z,1020.81
2018-07-14T00:57:15.093Z,1020.88
2018-07-14T00:58:15.207Z,1020.86
2018-07-14T00:59:15.340Z,1020.88
2018-07-14T01:00:15.280Z,1020.91
2018-07-14T01:01:15.307Z,1020.91
2018-07-14T01:02:15.292Z,1020.93
2018-07-14T01:03:15.282Z,1020.94
2018-07-14T01:04:15.255Z,1020.94
2018-07-14T01:05:15.420Z,1020.96
2018-07-14T01:06:15.103Z,1020.96
2018-07-14T01:07:15.194Z,1020.97
2018-07-14T01:08:15.254Z,1020.95
2018-07-14T01:09:15.328Z,1020.98
2018-07-14T01:10:15.232Z,1020.97
2018-07-14T01:11:15.164Z,1020.99
2018-07-14T01:12:15.394Z,1020.99
2018-07-14T01:13:15.410Z,1021
2018-07-14T01:14:15.261Z,1021.02
2018-07-14T01:15:15.124Z,1020.99
2018-07-14T01:16:15.322Z,1021.01
2018-07-14T01:17:15.358Z,1021
2018-07-14T01:18:15.194Z,1021.01
2018-07-14T01:19:15.221Z,1021.02
2018-07-14T01:20:15.333Z,1021.03
2018-07-14T01:21:15.386Z,1021
2018-07-14T01:22:15.197Z,1020.99
2018-07-14T01:23:46.561Z,1020.99
2018-07-14T01:24:15.312Z,1021.05
2018-07-14T01:25:15.275Z,1021.03
2018-07-14T01:26:15.145Z,1020.96
2018-07-14T01:27:15.342Z,1020.93
2018-07-14T01:28:15.207Z,1020.95
2018-07-14T01:29:15.648Z,1020.99
2018-07-14T01:30:15.286Z,1020.97
2018-07-14T01:31:15.221Z,1020.99
2018-07-14T01:32:15.295Z,1020.99
2018-07-14T01:33:15.400Z,1020.97
2018-07-14T01:34:15.177Z,1020.91
2018-07-14T01:35:15.117Z,1020.93
2018-07-14T01:36:15.186Z,1020.91
2018-07-14T01:37:15.167Z,1020.94
2018-07-14T01:38:15.122Z,1020.91
2018-07-14T01:39:15.298Z,1020.89
2018-07-14T01:40:15.387Z,1020.91
2018-07-14T01:41:15.236Z,1020.91
2018-07-14T01:42:15.362Z,1020.91
2018-07-14T01:43:15.432Z,1020.91
2018-07-14T01:44:15.492Z,1020.91
2018-07-14T01:45:15.408Z,1020.89
2018-07-14T01:46:25.467Z,1020.86
2018-07-14T01:47:15.244Z,1020.85
2018-07-14T01:48:15.165Z,1020.88
2018-07-14T01:49:15.247Z,1020.86
2018-07-14T01:50:15.375Z,1020.85
2018-07-14T01:51:15.089Z,1020.84
2018-07-14T01:52:15.197Z,1020.84
2018-07-14T01:53:15.347Z,1020.83
2018-07-14T01:54:15.192Z,1020.82
2018-07-14T01:55:15.482Z,1020.83
2018-07-14T01:56:15.231Z,1020.84
2018-07-14T01:57:15.310Z,1020.81
2018-07-14T01:58:15.179Z,1020.79
2018-07-14T01:59:15.189Z,1020.83
2018-07-14T02:00:15.147Z,1020.8
2018-07-14T02:01:15.181Z,1020.8
2018-07-14T02:02:15.252Z,1020.84
2018-07-14T02:03:15.371Z,1020.83
2018-07-14T02:04:15.241Z,1020.81
2018-07-14T02:05:15.279Z,1020.84
2018-07-14T02:06:15.246Z,1020.85
2018-07-14T02:07:15.431Z,1020.76
2018-07-14T02:08:15.296Z,1020.77
2018-07-14T02:09:15.335Z,1020.79
2018-07-14T02:10:15.237Z,1020.78
2018-07-14T02:11:15.039Z,1020.76
2018-07-14T02:12:15.345Z,1020.79
2018-07-14T02:13:15.194Z,1020.78
2018-07-14T02:14:15.309Z,1020.84
2018-07-14T02:15:15.232Z,1020.8
2018-07-14T02:16:15.396Z,1020.8
2018-07-14T02:17:15.418Z,1020.8
2018-07-14T02:18:15.260Z,1020.81
2018-07-14T02:19:15.157Z,1020.84
2018-07-14T02:20:15.096Z,1020.85
2018-07-14T02:21:15.325Z,1020.83
2018-07-14T02:22:15.387Z,1020.85
2018-07-14T02:23:15.251Z,1020.78
2018-07-14T02:24:15.213Z,1020.79
2018-07-14T02:25:15.352Z,1020.83
2018-07-14T02:26:15.283Z,1020.8
2018-07-14T02:27:15.208Z,1020.81
2018-07-14T02:28:15.404Z,1020.83
2018-07-14T02:29:15.397Z,1020.84
2018-07-14T02:30:15.477Z,1020.84
2018-07-14T02:31:15.042Z,1020.8
2018-07-14T02:32:15.240Z,1020.82
2018-07-14T02:33:15.282Z,1020.82
2018-07-14T02:34:15.236Z,1020.82
2018-07-14T02:35:15.282Z,1020.8
2018-07-14T02:36:15.320Z,1020.81
2018-07-14T02:37:15.300Z,1020.8
2018-07-14T02:38:15.378Z,1020.81
2018-07-14T02:39:15.396Z,1020.8
2018-07-14T02:40:15.103Z,1020.78
2018-07-14T02:41:15.616Z,1020.82
2018-07-14T02:42:15.219Z,1020.81
2018-07-14T02:43:15.365Z,1020.81
2018-07-14T02:44:15.163Z,1020.79
2018-07-14T02:45:15.251Z,1020.82
2018-07-14T02:46:15.223Z,1020.81
2018-07-14T02:47:15.117Z,1020.82
2018-07-14T02:48:15.249Z,1020.8
2018-07-14T02:49:15.340Z,1020.83
2018-07-14T02:50:15.609Z,1020.84
2018-07-14T02:51:15.295Z,1020.85
2018-07-14T02:52:15.444Z,1020.88
2018-07-14T02:53:15.169Z,1020.86
2018-07-14T02:54:15.237Z,1020.86
2018-07-14T02:55:15.237Z,1020.83
2018-07-14T02:56:15.378Z,1020.83
2018-07-14T02:57:15.226Z,1020.84
2018-07-14T02:58:15.071Z,1020.88
2018-07-14T02:59:15.210Z,1020.82
2018-07-14T03:00:15.204Z,1020.86
2018-07-14T03:01:15.198Z,1020.8
2018-07-14T03:02:15.212Z,1020.8
2018-07-14T03:03:15.303Z,1020.84
2018-07-14T03:04:15.345Z,1020.84
2018-07-14T03:05:15.383Z,1020.84
2018-07-14T03:06:15.298Z,1020.82
2018-07-14T03:07:15.281Z,1020.86
2018-07-14T03:08:15.242Z,1020.86
2018-07-14T03:09:15.226Z,1020.86
2018-07-14T03:10:15.249Z,1020.93
2018-07-14T03:11:15.237Z,1020.93
2018-07-14T03:12:15.297Z,1020.9
2018-07-14T03:13:15.666Z,1020.92
2018-07-14T03:14:15.216Z,1020.95
2018-07-14T03:15:15.311Z,1020.94
2018-07-14T03:16:15.370Z,1020.97
2018-07-14T03:17:15.246Z,1020.97
2018-07-14T03:18:15.245Z,1020.95
2018-07-14T03:19:15.364Z,1020.94
2018-07-14T03:20:15.192Z,1020.94
2018-07-14T03:21:15.327Z,1020.93
2018-07-14T03:22:15.455Z,1020.92
2018-07-14T03:23:15.190Z,1020.9
2018-07-14T03:24:15.298Z,1020.91
2018-07-14T03:25:15.103Z,1020.85
2018-07-14T03:26:15.720Z,1020.84
2018-07-14T03:27:15.218Z,1020.87
2018-07-14T03:28:15.246Z,1020.89
2018-07-14T03:29:15.021Z,1020.86
2018-07-14T03:30:15.348Z,1020.86
2018-07-14T03:31:15.235Z,1020.83
2018-07-14T03:32:15.263Z,1020.85
2018-07-14T03:33:15.408Z,1020.81
2018-07-14T03:34:15.171Z,1020.83
2018-07-14T03:35:15.191Z,1020.85
2018-07-14T03:36:15.297Z,1020.83
2018-07-14T03:37:15.259Z,1020.84
2018-07-14T03:38:15.109Z,1020.81
2018-07-14T03:39:15.114Z,1020.83
2018-07-14T03:40:15.330Z,1020.86
2018-07-14T03:41:15.133Z,1020.84
2018-07-14T03:42:15.271Z,1020.81
2018-07-14T03:43:15.350Z,1020.85
2018-07-14T03:44:15.377Z,1020.85
2018-07-14T03:45:15.255Z,1020.85
2018-07-14T03:46:15.140Z,1020.86
2018-07-14T03:47:15.077Z,1020.87
2018-07-14T03:48:15.130Z,1020.87
2018-07-14T03:49:15.342Z,1020.9
2018-07-14T03:50:15.215Z,1020.94
2018-07-14T03:51:15.263Z,1020.93
2018-07-14T03:52:15.127Z,1020.92
2018-07-14T03:53:15.336Z,1020.92
2018-07-14T03:54:15.411Z,1020.9
2018-07-14T03:55:15.072Z,1020.92
2018-07-14T03:56:15.139Z,1020.89
2018-07-14T03:57:15.326Z,1020.9
2018-07-14T03:58:15.236Z,1020.92
2018-07-14T03:59:15.290Z,1020.94
2018-07-14T04:00:15.221Z,1020.9
2018-07-14T04:01:15.198Z,1020.93
2018-07-14T04:02:15.350Z,1020.97
2018-07-14T04:03:15.411Z,1020.95
2018-07-14T04:04:15.294Z,1020.98
2018-07-14T04:05:15.261Z,1021.01
2018-07-14T04:06:15.165Z,1020.97
2018-07-14T04:07:15.191Z,1020.95
2018-07-14T04:08:15.299Z,1020.97
2018-07-14T04:09:15.188Z,1020.95
2018-07-14T04:10:15.279Z,1020.93
2018-07-14T04:11:15.276Z,1020.93
2018-07-14T04:12:15.172Z,1020.91
2018-07-14T04:13:15.264Z,1020.88
2018-07-14T04:14:15.305Z,1020.9
2018-07-14T04:15:15.306Z,1020.91
2018-07-14T04:16:25.147Z,1020.97
2018-07-14T04:17:15.230Z,1020.97
2018-07-14T04:18:15.465Z,1020.97
2018-07-14T04:19:15.186Z,1020.98
2018-07-14T04:20:15.362Z,1020.99
2018-07-14T04:21:15.082Z,1021.03
2018-07-14T04:22:15.503Z,1021.01
2018-07-14T04:23:15.300Z,1020.99
2018-07-14T04:24:15.183Z,1021.04
2018-07-14T04:25:15.154Z,1021.01
2018-07-14T04:26:15.447Z,1021.02
2018-07-14T04:27:15.358Z,1021.01
2018-07-14T04:28:15.295Z,1021
2018-07-14T04:29:15.180Z,1020.98
2018-07-14T04:30:15.126Z,1021.01
2018-07-14T04:31:15.162Z,1021.05
2018-07-14T04:32:15.285Z,1021.05
2018-07-14T04:33:15.288Z,1021.05
2018-07-14T04:34:15.272Z,1021.09
2018-07-14T04:35:15.347Z,1021.07
2018-07-14T04:36:15.150Z,1021.07
2018-07-14T04:37:15.531Z,1021.11
2018-07-14T04:38:15.295Z,1021.09
2018-07-14T04:39:15.155Z,1021.1
2018-07-14T04:40:15.252Z,1021.1
2018-07-14T04:41:15.220Z,1021.1
2018-07-14T04:42:15.242Z,1021.05
2018-07-14T04:43:15.141Z,1021.02
2018-07-14T04:44:15.312Z,1021.05
2018-07-14T04:45:15.201Z,1021.02
2018-07-14T04:46:15.113Z,1021.02
2018-07-14T04:47:15.213Z,1020.98
2018-07-14T04:48:15.138Z,1020.99
2018-07-14T04:49:15.080Z,1020.99
2018-07-14T04:50:15.250Z,1021.01
2018-07-14T04:51:15.183Z,1021.04
2018-07-14T04:52:15.284Z,1021.02
2018-07-14T04:53:15.565Z,1021.08
2018-07-14T04:54:15.082Z,1021.11
2018-07-14T04:55:15.254Z,1021.12
2018-07-14T04:56:15.256Z,1021.14
2018-07-14T04:57:15.007Z,1021.11
2018-07-14T04:58:15.297Z,1021.12
2018-07-14T04:59:15.234Z,1021.13
2018-07-14T05:00:15.151Z,1021.09
2018-07-14T05:01:15.251Z,1021.09
2018-07-14T05:02:15.135Z,1021.08
2018-07-14T05:03:15.297Z,1021.09
2018-07-14T05:04:15.205Z,1021.04
2018-07-14T05:05:15.297Z,1021.05
2018-07-14T05:06:15.145Z,1021.08
2018-07-14T05:07:15.204Z,1021.08
2018-07-14T05:08:15.256Z,1021.11
2018-07-14T05:09:15.179Z,1021.11
2018-07-14T05:10:15.348Z,1021.1
2018-07-14T05:11:15.292Z,1021.12
2018-07-14T05:12:15.171Z,1021.14
2018-07-14T05:13:15.251Z,1021.13
2018-07-14T05:14:15.121Z,1021.19
2018-07-14T05:15:15.094Z,1021.16
2018-07-14T05:16:15.238Z,1021.16
2018-07-14T05:17:15.184Z,1021.16
2018-07-14T05:18:15.135Z,1021.18
2018-07-14T05:19:15.243Z,1021.17
2018-07-14T05:20:15.126Z,1021.14
2018-07-14T05:21:15.475Z,1021.12
2018-07-14T05:22:15.410Z,1021.14
2018-07-14T05:23:15.228Z,1021.11
2018-07-14T05:24:15.064Z,1021.08
2018-07-14T05:25:15.168Z,1021.14
2018-07-14T05:26:15.385Z,1021.13
2018-07-14T05:27:15.130Z,1021.16
2018-07-14T05:28:15.270Z,1021.16
2018-07-14T05:29:16.665Z,1021.15
2018-07-14T05:30:15.100Z,1021.24
2018-07-14T05:31:15.164Z,1021.21
2018-07-14T05:32:15.346Z,1021.2
2018-07-14T05:33:15.183Z,1021.16
2018-07-14T05:34:15.188Z,1021.18
2018-07-14T05:35:15.383Z,1021.18
2018-07-14T05:36:15.224Z,1021.15
2018-07-14T05:37:15.118Z,1021.19
2018-07-14T05:38:15.327Z,1021.17
2018-07-14T05:39:15.337Z,1021.16
2018-07-14T05:40:15.172Z,1021.14
2018-07-14T05:41:15.171Z,1021.23
2018-07-14T05:42:15.058Z,1021.21
2018-07-14T05:43:15.151Z,1021.22
2018-07-14T05:44:15.453Z,1021.23
2018-07-14T05:45:15.104Z,1021.23
2018-07-14T05:46:15.297Z,1021.22
2018-07-14T05:47:15.350Z,1021.2
2018-07-14T05:48:15.105Z,1021.21
2018-07-14T05:49:15.358Z,1021.23
2018-07-14T05:50:15.303Z,1021.2
2018-07-14T05:51:15.157Z,1021.18
2018-07-14T05:52:15.244Z,1021.23
2018-07-14T05:53:15.282Z,1021.26
2018-07-14T05:54:15.202Z,1021.24
2018-07-14T05:55:15.385Z,1021.27
2018-07-14T05:56:15.080Z,1021.28
2018-07-14T05:57:15.111Z,1021.26
2018-07-14T05:58:15.275Z,1021.25
2018-07-14T05:59:15.167Z,1021.28
2018-07-14T06:00:15.123Z,1021.27
2018-07-14T06:01:15.301Z,1021.28
2018-07-14T06:02:15.220Z,1021.25
2018-07-14T06:03:15.248Z,1021.27
2018-07-14T06:04:15.068Z,1021.3
2018-07-14T06:05:15.251Z,1021.34
2018-07-14T06:06:15.124Z,1021.35
2018-07-14T06:07:15.281Z,1021.37
2018-07-14T06:08:15.348Z,1021.37
2018-07-14T06:09:25.072Z,1021.38
2018-07-14T06:10:15.220Z,1021.39
2018-07-14T06:11:15.190Z,1021.38
2018-07-14T06:12:15.111Z,1021.41
2018-07-14T06:13:15.248Z,1021.4
2018-07-14T06:14:15.521Z,1021.41
2018-07-14T06:15:15.075Z,1021.35
2018-07-14T06:16:15.421Z,1021.37
2018-07-14T06:17:15.220Z,1021.4
2018-07-14T06:18:15.123Z,1021.42
2018-07-14T06:19:15.212Z,1021.42
2018-07-14T06:20:15.272Z,1021.41
2018-07-14T06:21:15.157Z,1021.44
2018-07-14T06:22:15.282Z,1021.43
2018-07-14T06:23:15.323Z,1021.39
2018-07-14T06:24:15.090Z,1021.44
2018-07-14T06:25:15.258Z,1021.42
2018-07-14T06:26:15.245Z,1021.43
2018-07-14T06:27:15.196Z,1021.49
2018-07-14T06:28:15.215Z,1021.45
2018-07-14T06:29:15.258Z,1021.44
2018-07-14T06:30:15.347Z,1021.44
2018-07-14T06:31:15.264Z,1021.46
2018-07-14T06:32:15.133Z,1021.44
2018-07-14T06:33:15.309Z,1021.46
2018-07-14T06:34:15.107Z,1021.47
2018-07-14T06:35:15.112Z,1021.5
2018-07-14T06:36:15.204Z,1021.52
2018-07-14T06:37:15.110Z,1021.52
2018-07-14T06:38:15.478Z,1021.52
2018-07-14T06:39:15.266Z,1021.51
2018-07-14T06:40:15.111Z,1021.52
2018-07-14T06:41:15.603Z,1021.48
2018-07-14T06:42:20.036Z,1021.46
2018-07-14T06:43:15.309Z,1021.45
2018-07-14T06:44:15.220Z,1021.44
2018-07-14T06:45:15.082Z,1021.48
2018-07-14T06:46:15.381Z,1021.43
2018-07-14T06:47:15.487Z,1021.44
2018-07-14T06:48:15.214Z,1021.44
2018-07-14T06:49:15.141Z,1021.45
2018-07-14T06:50:15.366Z,1021.46
2018-07-14T06:51:15.154Z,1021.46
2018-07-14T06:52:15.231Z,1021.49
2018-07-14T06:53:15.303Z,1021.46
2018-07-14T06:54:15.256Z,1021.45
2018-07-14T06:55:15.278Z,1021.43
2018-07-14T06:56:15.547Z,1021.41
2018-07-14T06:57:15.071Z,1021.43
2018-07-14T06:58:15.189Z,1021.38
2018-07-14T06:59:15.102Z,1021.4
2018-07-14T07:00:15.261Z,1021.45
2018-07-14T07:01:15.255Z,1021.45
2018-07-14T07:02:15.115Z,1021.44
2018-07-14T07:03:15.167Z,1021.42
2018-07-14T07:04:15.196Z,1021.38
2018-07-14T07:05:15.121Z,1021.43
2018-07-14T07:06:15.240Z,1021.43
2018-07-14T07:07:15.330Z,1021.45
2018-07-14T07:08:15.043Z,1021.41
2018-07-14T07:09:15.139Z,1021.41
2018-07-14T07:10:15.261Z,1021.41
2018-07-14T07:11:15.098Z,1021.39
2018-07-14T07:12:15.112Z,1021.41
2018-07-14T07:13:15.276Z,1021.45
2018-07-14T07:14:15.251Z,1021.48
2018-07-14T07:15:15.195Z,1021.43
2018-07-14T07:16:15.211Z,1021.43
2018-07-14T07:17:15.251Z,1021.41
2018-07-14T07:18:15.178Z,1021.46
2018-07-14T07:19:15.337Z,1021.4
2018-07-14T07:20:15.089Z,1021.4
2018-07-14T07:21:15.206Z,1021.37
2018-07-14T07:22:15.098Z,1021.41
2018-07-14T07:23:15.206Z,1021.4
2018-07-14T07:24:15.435Z,1021.42
2018-07-14T07:25:15.100Z,1021.41
2018-07-14T07:26:15.256Z,1021.37
2018-07-14T07:27:15.217Z,1021.39
2018-07-14T07:28:15.284Z,1021.39
2018-07-14T07:29:15.094Z,1021.42
2018-07-14T07:30:15.065Z,1021.42
2018-07-14T07:31:15.794Z,1021.39
2018-07-14T07:32:15.250Z,1021.36
2018-07-14T07:33:15.331Z,1021.43
2018-07-14T07:34:15.279Z,1021.41
2018-07-14T07:35:15.241Z,1021.38
2018-07-14T07:36:15.221Z,1021.42
2018-07-14T07:37:15.804Z,1021.39
2018-07-14T07:38:15.219Z,1021.44
2018-07-14T07:39:15.441Z,1021.43
2018-07-14T07:40:15.556Z,1021.41
2018-07-14T07:41:15.280Z,1021.43
2018-07-14T07:42:15.327Z,1021.46
2018-07-14T07:43:15.304Z,1021.44
2018-07-14T07:44:15.138Z,1021.43
2018-07-14T07:45:15.215Z,1021.38
2018-07-14T07:46:15.121Z,1021.38
2018-07-14T07:47:15.257Z,1021.36
2018-07-14T07:48:15.329Z,1021.36
2018-07-14T07:49:15.262Z,1021.36
2018-07-14T07:50:15.111Z,1021.37
2018-07-14T07:51:15.372Z,1021.37
2018-07-14T07:52:15.157Z,1021.35
2018-07-14T07:53:15.252Z,1021.36
2018-07-14T07:54:15.132Z,1021.34
2018-07-14T07:55:15.284Z,1021.36
2018-07-14T07:56:15.134Z,1021.34
2018-07-14T07:57:15.801Z,1021.36
2018-07-14T07:58:15.148Z,1021.37
2018-07-14T07:59:15.094Z,1021.29
2018-07-14T08:00:15.304Z,1021.33
2018-07-14T08:01:15.163Z,1021.31
2018-07-14T08:02:15.241Z,1021.29
2018-07-14T08:03:15.100Z,1021.35
2018-07-14T08:04:15.162Z,1021.29
2018-07-14T08:05:15.092Z,1021.28
2018-07-14T08:06:15.286Z,1021.33
2018-07-14T08:07:15.240Z,1021.34
2018-07-14T08:08:14.960Z,1021.36
2018-07-14T08:09:15.136Z,1021.32
2018-07-14T08:10:15.281Z,1021.32
2018-07-14T08:11:15.109Z,1021.29
2018-07-14T08:12:15.422Z,1021.33
2018-07-14T08:13:15.244Z,1021.3
2018-07-14T08:14:15.382Z,1021.23
2018-07-14T08:15:15.076Z,1021.3
2018-07-14T08:16:47.024Z,1021.26
2018-07-14T08:17:15.150Z,1021.32
2018-07-14T08:18:15.103Z,1021.28
2018-07-14T08:19:15.134Z,1021.3
2018-07-14T08:20:15.307Z,1021.29
2018-07-14T08:21:15.106Z,1021.29
2018-07-14T08:22:15.165Z,1021.27
2018-07-14T08:23:15.289Z,1021.27
2018-07-14T08:24:15.178Z,1021.26
2018-07-14T08:25:15.357Z,1021.31
2018-07-14T08:26:15.088Z,1021.3
2018-07-14T08:27:15.198Z,1021.27
2018-07-14T08:28:15.063Z,1021.29
2018-07-14T08:29:15.196Z,1021.25
2018-07-14T08:30:15.027Z,1021.27
2018-07-14T08:31:15.110Z,1021.22
2018-07-14T08:32:15.232Z,1021.26
2018-07-14T08:33:15.233Z,1021.3
2018-07-14T08:34:15.116Z,1021.21
2018-07-14T08:35:15.174Z,1021.22
2018-07-14T08:36:15.276Z,1021.2
2018-07-14T08:37:15.267Z,1021.19
2018-07-14T08:38:15.170Z,1021.19
2018-07-14T08:39:15.047Z,1021.18
2018-07-14T08:40:15.221Z,1021.18
2018-07-14T08:41:15.146Z,1021.18
2018-07-14T08:42:15.069Z,1021.17
2018-07-14T08:43:15.205Z,1021.14
2018-07-14T08:44:15.150Z,1021.15
2018-07-14T08:45:15.110Z,1021.15
2018-07-14T08:46:15.152Z,1021.16
2018-07-14T08:47:15.139Z,1021.15
2018-07-14T08:48:15.065Z,1021.16
2018-07-14T08:49:15.174Z,1021.09
2018-07-14T08:50:15.227Z,1021.04
2018-07-14T08:51:15.344Z,1021.09
2018-07-14T08:52:15.296Z,1021.1
2018-07-14T08:53:15.158Z,1021.14
2018-07-14T08:54:15.236Z,1021.12
2018-07-14T08:55:15.175Z,1021.11
2018-07-14T08:56:15.156Z,1021.13
2018-07-14T08:57:14.979Z,1021.1
2018-07-14T08:58:15.437Z,1021.12
2018-07-14T08:59:15.293Z,1021.16
2018-07-14T09:00:15.115Z,1021.14
2018-07-14T09:01:15.231Z,1021.11
2018-07-14T09:02:15.007Z,1021.05
2018-07-14T09:03:15.417Z,1021.07
2018-07-14T09:04:15.413Z,1021.05
2018-07-14T09:05:15.246Z,1021.04
2018-07-14T09:06:14.999Z,1021.01
2018-07-14T09:07:15.170Z,1021.05
2018-07-14T09:08:15.403Z,1021.01
2018-07-14T09:09:15.164Z,1021.02
2018-07-14T09:10:15.118Z,1021.03
2018-07-14T09:11:15.157Z,1021.03
2018-07-14T09:12:15.311Z,1020.98
2018-07-14T09:13:15.113Z,1020.97
2018-07-14T09:14:15.173Z,1020.97
2018-07-14T09:15:15.015Z,1020.96
2018-07-14T09:16:15.141Z,1020.98
2018-07-14T09:17:15.185Z,1020.98
2018-07-14T09:18:15.097Z,1020.97
2018-07-14T09:19:15.078Z,1020.97
2018-07-14T09:20:15.180Z,1020.94
2018-07-14T09:21:15.089Z,1020.94
2018-07-14T09:22:15.161Z,1020.91
2018-07-14T09:23:15.064Z,1020.93
2018-07-14T09:24:25.157Z,1020.98
2018-07-14T09:25:15.194Z,1020.99
2018-07-14T09:26:15.549Z,1020.97
2018-07-14T09:27:15.289Z,1020.97
2018-07-14T09:28:15.114Z,1020.96
2018-07-14T09:29:14.998Z,1020.95
2018-07-14T09:30:15.230Z,1020.95
2018-07-14T09:31:15.114Z,1020.93
2018-07-14T09:32:15.463Z,1020.93
2018-07-14T09:33:15.144Z,1020.91
2018-07-14T09:34:15.301Z,1020.89
2018-07-14T09:35:15.331Z,1020.9
2018-07-14T09:36:15.159Z,1020.89
2018-07-14T09:37:15.290Z,1020.85
2018-07-14T09:38:25.335Z,1020.83
2018-07-14T09:39:15.071Z,1020.86
2018-07-14T09:40:15.119Z,1020.8
2018-07-14T09:41:15.231Z,1020.81
2018-07-14T09:42:14.994Z,1020.81
2018-07-14T09:43:15.142Z,1020.81
2018-07-14T09:44:15.173Z,1020.81
2018-07-14T09:45:15.105Z,1020.81
2018-07-14T09:46:15.164Z,1020.83
2018-07-14T09:47:15.041Z,1020.81
2018-07-14T09:48:14.993Z,1020.83
2018-07-14T09:49:15.098Z,1020.84
2018-07-14T09:50:15.225Z,1020.85
2018-07-14T09:51:15.114Z,1020.85
2018-07-14T09:52:15.220Z,1020.81
2018-07-14T09:53:15.079Z,1020.77
2018-07-14T09:54:14.945Z,1020.84
2018-07-14T09:55:15.312Z,1020.8
2018-07-14T09:56:15.519Z,1020.79
2018-07-14T09:57:14.975Z,1020.8
2018-07-14T09:58:15.226Z,1020.75
2018-07-14T09:59:15.118Z,1020.74
2018-07-14T10:00:15.259Z,1020.73
2018-07-14T10:01:15.164Z,1020.79
2018-07-14T10:02:14.975Z,1020.79
2018-07-14T10:03:15.223Z,1020.75
2018-07-14T10:04:15.023Z,1020.73
2018-07-14T10:05:15.241Z,1020.74
2018-07-14T10:06:15.294Z,1020.73
2018-07-14T10:07:15.351Z,1020.71
2018-07-14T10:08:15.015Z,1020.67
2018-07-14T10:09:15.012Z,1020.66
2018-07-14T10:10:15.167Z,1020.61
2018-07-14T10:11:15.061Z,1020.64
2018-07-14T10:12:15.278Z,1020.63
2018-07-14T10:13:15.442Z,1020.58
2018-07-14T10:14:15.028Z,1020.54
2018-07-14T10:15:15.297Z,1020.56
2018-07-14T10:16:15.147Z,1020.58
2018-07-14T10:17:15.196Z,1020.51
2018-07-14T10:18:14.972Z,1020.55
2018-07-14T10:19:15.139Z,1020.5
2018-07-14T10:20:15.186Z,1020.45
2018-07-14T10:21:15.223Z,1020.46
2018-07-14T10:22:15.293Z,1020.42
2018-07-14T10:23:15.305Z,1020.46
2018-07-14T10:24:15.208Z,1020.44
2018-07-14T10:25:15.798Z,1020.48
2018-07-14T10:26:15.058Z,1020.45
2018-07-14T10:27:46.872Z,1020.4
2018-07-14T10:28:15.116Z,1020.41
2018-07-14T10:29:15.042Z,1020.38
2018-07-14T10:30:15.112Z,1020.38
2018-07-14T10:31:15.076Z,1020.37
2018-07-14T10:32:15.098Z,1020.34
2018-07-14T10:33:15.259Z,1020.36
2018-07-14T10:34:15.037Z,1020.39
2018-07-14T10:35:15.231Z,1020.33
2018-07-14T10:36:15.050Z,1020.33
2018-07-14T10:37:14.888Z,1020.35
2018-07-14T10:38:15.086Z,1020.34
2018-07-14T10:38:44.361Z,1020.34
2018-07-14T10:39:39.892Z,1020.24
2018-07-14T10:40:39.413Z,1020.2
2018-07-14T10:40:56.078Z,1020.23
2018-07-14T10:41:22.640Z,1020.23
2018-07-14T10:44:20.231Z,1020.29
2018-07-14T10:44:59.600Z,1020.27
2018-07-14T10:45:21.301Z,1020.28
2018-07-14T10:46:21.688Z,1020.29
2018-07-14T10:47:21.355Z,1020.28
2018-07-14T10:48:21.377Z,1020.33
2018-07-14T10:49:21.527Z,1020.29
2018-07-14T10:50:21.608Z,1020.29
2018-07-14T10:51:21.559Z,1020.29
2018-07-14T10:52:21.487Z,1020.28
2018-07-14T10:53:21.549Z,1020.27
2018-07-14T10:54:31.521Z,1020.23
2018-07-14T10:55:21.590Z,1020.26
2018-07-14T10:56:21.592Z,1020.23
2018-07-14T10:57:21.687Z,1020.21
2018-07-14T10:58:21.559Z,1020.19
2018-07-14T10:59:21.463Z,1020.14
2018-07-14T11:00:21.534Z,1020.13
2018-07-14T11:01:21.573Z,1020.04
2018-07-14T11:02:21.472Z,1020.1
2018-07-14T11:03:21.528Z,1020.09
2018-07-14T11:04:21.770Z,1020.08
2018-07-14T11:05:21.497Z,1020.12
2018-07-14T11:06:21.513Z,1020.1
2018-07-14T11:07:21.553Z,1020.1
2018-07-14T11:08:44.010Z,1020.07
2018-07-14T11:09:44.155Z,1020.03
2018-07-14T11:10:44.026Z,1019.99
2018-07-14T11:11:43.999Z,1020.02
2018-07-14T11:12:43.937Z,1020.01
2018-07-14T11:13:44.090Z,1020
2018-07-14T11:14:43.911Z,1020.01
2018-07-14T11:15:43.968Z,1020.03
2018-07-14T11:16:43.903Z,1019.99
2018-07-14T11:17:44.272Z,1019.98
2018-07-14T11:18:44.040Z,1019.99
2018-07-14T11:19:44.200Z,1019.97
2018-07-14T11:20:44.147Z,1019.95
2018-07-14T11:21:43.918Z,1019.93
2018-07-14T11:22:44.064Z,1019.97
2018-07-14T11:23:44.306Z,1019.95
2018-07-14T11:24:44.158Z,1019.97
2018-07-14T11:25:43.952Z,1019.94
2018-07-14T11:26:44.005Z,1019.9
2018-07-14T11:27:44.080Z,1019.95
2018-07-14T11:28:43.999Z,1019.91
2018-07-14T11:29:44.114Z,1019.87
2018-07-14T11:30:43.941Z,1019.91
2018-07-14T11:31:44.073Z,1019.88
2018-07-14T11:32:44.070Z,1019.88
2018-07-14T11:33:44.026Z,1019.89
2018-07-14T11:34:44.199Z,1019.9
2018-07-14T11:35:44.092Z,1019.89
2018-07-14T11:36:44.186Z,1019.93
2018-07-14T11:37:44.242Z,1019.9
2018-07-14T11:38:44.037Z,1019.88
2018-07-14T11:39:44.165Z,1019.85
2018-07-14T11:40:44.057Z,1019.84
2018-07-14T11:41:44.046Z,1019.85
2018-07-14T11:42:44.139Z,1019.81
2018-07-14T11:43:44.231Z,1019.81
2018-07-14T11:44:44.080Z,1019.73
2018-07-14T11:45:44.055Z,1019.72
2018-07-14T11:46:44.001Z,1019.78
2018-07-14T11:47:44.165Z,1019.76
2018-07-14T11:48:44.130Z,1019.78
2018-07-14T11:49:43.896Z,1019.79
2018-07-14T11:50:43.960Z,1019.8
2018-07-14T11:51:44.089Z,1019.78
2018-07-14T11:52:44.212Z,1019.79
2018-07-14T11:53:44.091Z,1019.8
2018-07-14T11:54:44.332Z,1019.76
2018-07-14T11:55:44.082Z,1019.76
2018-07-14T11:56:44.013Z,1019.75
2018-07-14T11:57:44.157Z,1019.75
2018-07-14T11:58:44.211Z,1019.72
2018-07-14T11:59:43.980Z,1019.7
2018-07-14T12:00:44.004Z,1019.74
2018-07-14T12:01:44.135Z,1019.72
2018-07-14T12:02:43.883Z,1019.68
2018-07-14T12:03:44.261Z,1019.68
2018-07-14T12:04:44.088Z,1019.66
2018-07-14T12:05:44.097Z,1019.67
2018-07-14T12:06:44.137Z,1019.6
2018-07-14T12:07:44.183Z,1019.6